createdAt,value
2022-07-28T00:00:00.325Z,0.0
2022-07-28T00:05:00.329Z,0.0
2022-07-28T00:10:01.390Z,0.0
2022-07-28T00:15:00.325Z,0.0
2022-07-28T00:20:00.291Z,0.0
2022-07-28T00:25:00.315Z,0.0
2022-07-28T00:30:00.312Z,0.0
2022-07-28T00:35:00.311Z,0.0
2022-07-28T00:40:00.303Z,0.0
2022-07-28T00:45:00.310Z,0.0
2022-07-28T00:50:00.328Z,0.0
2022-07-28T00:55:00.268Z,0.0
2022-07-28T01:00:00.410Z,0.0
2022-07-28T01:05:00.324Z,0.0
2022-07-28T01:10:00.343Z,0.0
2022-07-28T01:15:00.317Z,0.0
2022-07-28T01:20:00.319Z,0.0
2022-07-28T01:25:00.282Z,0.0
2022-07-28T01:30:00.287Z,0.0
2022-07-28T01:35:04.438Z,0.0
2022-07-28T01:40:00.324Z,0.0
2022-07-28T01:45:00.313Z,0.0
2022-07-28T01:50:00.320Z,0.0
2022-07-28T01:55:00.297Z,0.0
2022-07-28T02:00:00.340Z,0.0
2022-07-28T02:05:00.577Z,0.0
2022-07-28T02:10:00.297Z,0.0
2022-07-28T02:15:00.299Z,0.0
2022-07-28T02:20:00.304Z,0.0
2022-07-28T02:25:00.308Z,0.0
2022-07-28T02:30:00.277Z,0.0
2022-07-28T02:35:00.322Z,0.0
2022-07-28T02:40:01.074Z,0.0
2022-07-28T02:45:00.305Z,0.0
2022-07-28T02:50:00.279Z,0.0
2022-07-28T02:55:00.301Z,0.0
2022-07-28T03:00:00.331Z,0.0
2022-07-28T03:05:00.669Z,0.0
2022-07-28T03:10:00.349Z,0.0
2022-07-28T03:15:00.305Z,0.0
2022-07-28T03:20:00.297Z,0.0
2022-07-28T03:25:01.070Z,0.0
2022-07-28T03:30:04.559Z,0.0
2022-07-28T03:35:00.307Z,0.0
2022-07-28T03:40:00.307Z,0.0
2022-07-28T03:45:00.319Z,0.0
2022-07-28T03:50:00.348Z,0.0
2022-07-28T03:55:00.319Z,0.0
2022-07-28T04:00:00.351Z,0.0
2022-07-28T04:05:00.333Z,0.0
2022-07-28T04:10:00.397Z,0.0
2022-07-28T04:15:00.272Z,0.0
2022-07-28T04:20:00.317Z,0.0
2022-07-28T04:25:00.353Z,0.0
2022-07-28T04:30:00.311Z,0.0
2022-07-28T04:35:00.298Z,0.0
2022-07-28T04:40:00.331Z,0.0
2022-07-28T04:45:00.316Z,0.0
2022-07-28T04:50:00.326Z,0.0
2022-07-28T04:55:00.359Z,0.0
2022-07-28T05:00:00.322Z,0.0
2022-07-28T05:05:00.575Z,1.4
2022-07-28T05:10:00.289Z,0.0
2022-07-28T05:15:00.346Z,0.0
2022-07-28T05:20:03.788Z,0.0
2022-07-28T05:25:00.296Z,0.0
2022-07-28T05:30:00.297Z,0.0
2022-07-28T05:35:00.308Z,3.6
2022-07-28T05:40:00.337Z,1.4
2022-07-28T05:45:00.306Z,2.2
2022-07-28T05:50:00.425Z,4.7
2022-07-28T05:55:00.311Z,2.5
2022-07-28T06:00:00.394Z,2.5
2022-07-28T06:05:00.322Z,5.0
2022-07-28T06:10:00.299Z,3.6
2022-07-28T06:15:00.372Z,2.9
2022-07-28T06:20:00.309Z,2.2
2022-07-28T06:25:00.324Z,0.0
2022-07-28T06:30:00.359Z,4.0
2022-07-28T06:35:00.328Z,0.0
2022-07-28T06:40:00.339Z,3.6
2022-07-28T06:45:00.550Z,3.2
2022-07-28T06:50:00.306Z,1.4
2022-07-28T06:55:02.388Z,5.8
2022-07-28T07:00:00.318Z,5.0
2022-07-28T07:05:00.351Z,1.4
2022-07-28T07:15:00.380Z,3.6
2022-07-28T07:20:00.333Z,9.0
2022-07-28T07:25:00.314Z,4.3
2022-07-28T07:30:00.363Z,2.2
2022-07-28T07:35:00.308Z,0.0
2022-07-28T07:40:00.389Z,5.0
2022-07-28T07:45:00.333Z,5.0
2022-07-28T07:50:04.881Z,4.0
2022-07-28T07:55:00.325Z,0.0
2022-07-28T08:00:00.371Z,6.1
2022-07-28T08:05:00.801Z,4.0
2022-07-28T08:10:00.281Z,6.8
2022-07-28T08:15:00.320Z,0.0
2022-07-28T08:20:00.330Z,4.3
2022-07-28T08:25:00.330Z,0.0
2022-07-28T08:30:00.383Z,5.0
2022-07-28T08:35:32.777Z,0.0
2022-07-28T08:40:00.311Z,3.6
2022-07-28T08:45:01.993Z,6.5
2022-07-28T08:50:00.312Z,8.3
2022-07-28T08:55:00.291Z,4.0
2022-07-28T09:00:00.305Z,3.6
2022-07-28T09:05:00.338Z,1.8
2022-07-28T09:10:03.404Z,6.8
2022-07-28T09:15:00.327Z,4.0
2022-07-28T09:20:00.310Z,4.0
2022-07-28T09:25:00.556Z,10.8
2022-07-28T09:30:00.349Z,2.5
2022-07-28T09:35:00.377Z,2.5
2022-07-28T09:40:00.350Z,4.7
2022-07-28T09:45:23.173Z,7.6
2022-07-28T09:50:00.724Z,1.4
2022-07-28T09:55:00.313Z,3.2
2022-07-28T10:00:02.412Z,6.8
2022-07-28T10:05:00.342Z,4.0
2022-07-28T10:10:00.348Z,5.8
2022-07-28T10:15:00.329Z,4.0
2022-07-28T10:20:00.321Z,5.4
2022-07-28T10:25:00.300Z,4.3
2022-07-28T10:30:00.356Z,5.0
2022-07-28T10:35:00.305Z,1.8
2022-07-28T10:40:00.331Z,2.5
2022-07-28T10:45:00.320Z,7.9
2022-07-28T10:50:00.696Z,10.8
2022-07-28T10:55:00.346Z,3.6
2022-07-28T11:00:14.346Z,6.5
2022-07-28T11:05:00.338Z,7.9
2022-07-28T11:10:00.345Z,7.2
2022-07-28T11:15:19.214Z,6.8
2022-07-28T11:20:27.438Z,7.9
2022-07-28T11:25:22.070Z,6.5
2022-07-28T11:30:00.331Z,5.0
2022-07-28T11:35:00.310Z,5.4
2022-07-28T11:40:00.299Z,8.3
2022-07-28T11:45:01.387Z,2.9
2022-07-28T11:50:00.336Z,9.0
2022-07-28T11:55:00.778Z,0.0
2022-07-28T12:00:00.465Z,6.8
2022-07-28T12:05:00.405Z,5.4
2022-07-28T12:10:00.296Z,4.3
2022-07-28T12:15:07.477Z,5.0
2022-07-28T12:20:00.581Z,7.6
2022-07-28T12:25:00.421Z,10.4
2022-07-28T12:30:00.345Z,6.5
2022-07-28T12:35:00.329Z,2.9
2022-07-28T12:40:00.298Z,9.4
2022-07-28T12:45:02.341Z,8.3
2022-07-28T12:50:07.362Z,8.3
2022-07-28T12:55:00.297Z,6.1
2022-07-28T13:00:00.438Z,8.6
2022-07-28T13:05:00.322Z,9.7
2022-07-28T13:10:01.138Z,1.4
2022-07-28T13:15:00.318Z,3.6
2022-07-28T13:20:00.294Z,9.4
2022-07-28T13:25:00.331Z,5.8
2022-07-28T13:30:00.321Z,4.3
2022-07-28T13:35:02.694Z,10.8
2022-07-28T13:40:00.310Z,4.0
2022-07-28T13:45:05.269Z,6.5
2022-07-28T13:50:00.365Z,6.1
2022-07-28T13:55:04.587Z,10.8
2022-07-28T14:00:01.956Z,10.8
2022-07-28T14:05:00.286Z,12.2
2022-07-28T14:10:00.415Z,6.5
2022-07-28T14:15:00.391Z,3.6
2022-07-28T14:20:00.324Z,0.0
2022-07-28T14:25:00.405Z,4.7
2022-07-28T14:30:04.430Z,6.5
2022-07-28T14:35:02.790Z,9.7
2022-07-28T14:40:00.354Z,7.2
2022-07-28T14:45:00.378Z,8.3
2022-07-28T14:50:00.310Z,5.0
2022-07-28T14:55:00.331Z,6.1
2022-07-28T15:00:00.380Z,8.6
2022-07-28T15:05:00.274Z,7.2
2022-07-28T15:10:00.293Z,7.2
2022-07-28T15:15:00.326Z,9.4
2022-07-28T15:20:00.357Z,6.8
2022-07-28T15:25:00.319Z,8.3
2022-07-28T15:30:03.636Z,10.8
2022-07-28T15:35:00.302Z,7.9
2022-07-28T15:40:00.375Z,8.6
2022-07-28T15:45:01.575Z,4.7
2022-07-28T15:50:00.646Z,3.6
2022-07-28T15:55:00.289Z,5.8
2022-07-28T16:00:00.394Z,5.8
2022-07-28T16:05:00.309Z,6.8
2022-07-28T16:10:00.320Z,7.6
2022-07-28T16:15:00.336Z,4.3
2022-07-28T16:20:03.062Z,3.6
2022-07-28T16:25:00.313Z,0.0
2022-07-28T16:30:01.998Z,2.2
2022-07-28T16:35:00.295Z,3.2
2022-07-28T16:40:00.345Z,3.2
2022-07-28T16:45:00.312Z,1.8
2022-07-28T16:50:00.326Z,4.0
2022-07-28T16:55:00.332Z,2.9
2022-07-28T17:00:00.340Z,6.8
2022-07-28T17:05:02.590Z,0.0
2022-07-28T17:10:00.308Z,6.8
2022-07-28T17:15:00.350Z,4.7
2022-07-28T17:20:00.334Z,6.1
2022-07-28T17:25:02.293Z,1.8
2022-07-28T17:30:00.296Z,4.0
2022-07-28T17:35:00.315Z,2.9
2022-07-28T17:40:04.888Z,3.6
2022-07-28T17:45:01.316Z,3.2
2022-07-28T17:50:00.225Z,4.0
2022-07-28T17:55:02.631Z,1.8
2022-07-28T18:00:00.340Z,3.2
2022-07-28T18:05:00.293Z,3.6
2022-07-28T18:10:00.360Z,0.0
2022-07-28T18:15:00.332Z,1.4
2022-07-28T18:20:00.397Z,0.0
2022-07-28T18:25:00.291Z,2.2
2022-07-28T18:30:00.313Z,0.0
2022-07-28T18:35:00.339Z,1.4
2022-07-28T18:40:00.362Z,2.5
2022-07-28T18:45:00.435Z,1.1
2022-07-28T18:50:00.341Z,1.8
2022-07-28T18:55:00.357Z,0.0
2022-07-28T19:00:00.394Z,1.4
2022-07-28T19:05:00.291Z,2.2
2022-07-28T19:10:00.369Z,1.1
2022-07-28T19:15:00.359Z,2.2
2022-07-28T19:20:00.337Z,0.0
2022-07-28T19:25:00.351Z,0.0
2022-07-28T19:30:00.335Z,1.4
2022-07-28T19:35:00.450Z,0.0
2022-07-28T19:40:00.335Z,0.0
2022-07-28T19:45:00.357Z,0.0
2022-07-28T19:50:00.350Z,0.0
2022-07-28T19:55:00.366Z,0.0
2022-07-28T20:00:00.365Z,0.0
2022-07-28T20:05:00.413Z,0.0
2022-07-28T20:10:00.320Z,0.0
2022-07-28T20:15:02.349Z,0.0
2022-07-28T20:20:00.360Z,0.0
2022-07-28T20:25:00.357Z,0.0
2022-07-28T20:30:00.337Z,2.5
2022-07-28T20:35:00.345Z,2.5
2022-07-28T20:40:00.355Z,1.8
2022-07-28T20:45:00.369Z,1.4
2022-07-28T20:50:00.380Z,1.8
2022-07-28T20:55:00.333Z,3.6
2022-07-28T21:00:00.360Z,4.7
2022-07-28T21:05:00.472Z,2.5
2022-07-28T21:10:00.315Z,4.7
2022-07-28T21:15:00.701Z,5.8
2022-07-28T21:20:00.340Z,4.0
2022-07-28T21:25:00.367Z,3.6
2022-07-28T21:30:00.417Z,1.8
2022-07-28T21:35:00.320Z,4.3
2022-07-28T21:40:00.301Z,7.9
2022-07-28T21:45:00.344Z,6.1
2022-07-28T21:50:00.477Z,7.2
2022-07-28T21:55:00.370Z,6.5
2022-07-28T22:00:00.442Z,5.4
2022-07-28T22:05:00.610Z,6.5
2022-07-28T22:10:00.301Z,6.1
2022-07-28T22:15:00.340Z,4.3
2022-07-28T22:20:00.368Z,4.0
2022-07-28T22:25:00.320Z,5.0
2022-07-28T22:30:00.336Z,5.0
2022-07-28T22:35:00.343Z,6.8
2022-07-28T22:40:00.275Z,5.4
2022-07-28T22:45:00.335Z,2.9
2022-07-28T22:50:00.348Z,4.3
2022-07-28T22:55:00.313Z,5.0
2022-07-28T23:00:02.071Z,4.3
2022-07-28T23:05:00.316Z,4.7
2022-07-28T23:10:00.309Z,3.2
2022-07-28T23:15:00.340Z,3.6
2022-07-28T23:20:00.309Z,4.0
2022-07-28T23:25:00.286Z,5.8
2022-07-28T23:30:00.461Z,4.7
2022-07-28T23:35:00.326Z,3.6
2022-07-28T23:40:00.397Z,5.8
2022-07-28T23:45:00.319Z,4.0
2022-07-28T23:50:00.324Z,4.0
2022-07-28T23:55:00.324Z,1.8
